createdAt,value
2022-12-25T00:01:52.903Z,13.48
2022-12-25T00:04:57.153Z,12.90
2022-12-25T00:11:11.042Z,12.95
2022-12-25T00:14:15.383Z,13.40
2022-12-25T00:17:19.559Z,12.48
2022-12-25T00:20:23.907Z,12.98
2022-12-25T00:23:28.653Z,13.50
2022-12-25T00:26:32.876Z,14.77
2022-12-25T00:29:37.276Z,12.35
2022-12-25T00:32:42.210Z,13.27
2022-12-25T00:36:01.001Z,11.95
2022-12-25T00:39:07.047Z,11.45
2022-12-25T00:42:20.544Z,12.98
2022-12-25T00:45:24.915Z,11.47
2022-12-25T00:48:30.531Z,11.18
2022-12-25T00:51:34.863Z,12.15
2022-12-25T00:54:39.192Z,11.63
2022-12-25T00:57:43.256Z,10.57
2022-12-25T01:00:49.103Z,10.93
2022-12-25T01:03:53.422Z,11.02
2022-12-25T01:06:57.823Z,11.23
2022-12-25T01:10:20.753Z,11.65
2022-12-25T01:13:25.668Z,11.63
2022-12-25T01:16:30.420Z,12.43
2022-12-25T01:19:34.687Z,13.38
2022-12-25T01:22:39.600Z,12.75
2022-12-25T01:25:44.426Z,13.90
2022-12-25T01:28:51.602Z,14.55
2022-12-25T01:31:56.427Z,15.18
2022-12-25T01:35:01.579Z,15.43
2022-12-25T01:38:06.240Z,15.15
2022-12-25T01:41:13.017Z,15.93
2022-12-25T01:44:35.621Z,18.75
2022-12-25T01:47:39.849Z,19.48
2022-12-25T01:50:48.977Z,19.15
2022-12-25T01:53:54.946Z,20.52
2022-12-25T01:57:04.669Z,22.45
2022-12-25T02:00:10.911Z,25.13
2022-12-25T02:03:15.480Z,30.05
2022-12-25T02:06:19.770Z,28.30
2022-12-25T02:09:23.945Z,30.33
2022-12-25T02:12:32.806Z,33.55
2022-12-25T02:16:13.234Z,31.80
2022-12-25T02:19:53.013Z,30.08
2022-12-25T02:23:40.951Z,31.80
2022-12-25T02:26:57.115Z,31.83
2022-12-25T02:30:07.639Z,30.05
2022-12-25T02:33:43.913Z,30.33
2022-12-25T02:37:22.789Z,29.83
2022-12-25T02:40:39.375Z,29.65
2022-12-25T02:44:04.779Z,27.88
2022-12-25T02:47:45.986Z,30.20
2022-12-25T02:51:09.933Z,25.92
2022-12-25T02:54:40.759Z,29.67
2022-12-25T02:58:10.391Z,28.52
2022-12-25T03:01:42.524Z,27.10
2022-12-25T03:05:06.468Z,28.95
2022-12-25T03:08:18.685Z,28.25
2022-12-25T03:11:31.623Z,28.40
2022-12-25T03:14:54.430Z,27.60
2022-12-25T03:18:03.115Z,27.13
2022-12-25T03:21:26.017Z,28.63
2022-12-25T03:24:49.282Z,26.77
2022-12-25T03:27:56.973Z,30.98
2022-12-25T03:31:36.142Z,30.15
2022-12-25T03:35:06.466Z,28.10
2022-12-25T03:38:49.167Z,29.17
2022-12-25T03:42:17.980Z,28.27
2022-12-25T03:45:53.220Z,30.52
2022-12-25T03:49:33.244Z,29.33
2022-12-25T03:52:58.244Z,28.27
2022-12-25T03:56:23.909Z,28.60
2022-12-25T03:59:47.109Z,30.27
2022-12-25T04:03:10.273Z,33.22
2022-12-25T04:06:33.075Z,29.67
2022-12-25T04:09:55.996Z,31.90
2022-12-25T04:13:18.818Z,30.92
2022-12-25T04:16:41.342Z,30.70
2022-12-25T04:20:04.520Z,32.90
2022-12-25T04:23:27.904Z,32.47
2022-12-25T04:26:50.655Z,33.70
2022-12-25T04:30:13.803Z,31.00
2022-12-25T04:33:36.675Z,32.53
2022-12-25T04:36:41.014Z,31.92
2022-12-25T04:39:45.487Z,31.15
2022-12-25T04:42:53.524Z,27.98
2022-12-25T04:46:00.492Z,29.88
2022-12-25T04:49:05.244Z,29.27
2022-12-25T04:52:09.598Z,30.70
2022-12-25T04:55:13.889Z,28.23
2022-12-25T04:58:18.083Z,27.15
2022-12-25T05:01:22.548Z,26.80
2022-12-25T05:04:27.501Z,23.90
2022-12-25T05:07:33.267Z,26.45
2022-12-25T05:10:40.520Z,24.48
2022-12-25T05:13:45.103Z,25.77
2022-12-25T05:16:49.970Z,26.33
2022-12-25T05:19:54.109Z,25.75
2022-12-25T05:22:58.569Z,27.38
2022-12-25T05:26:07.468Z,27.23
2022-12-25T05:29:11.957Z,26.40
2022-12-25T05:32:16.459Z,25.10
2022-12-25T05:38:24.789Z,24.83
2022-12-25T05:41:34.181Z,25.35
2022-12-25T05:44:39.287Z,26.10
2022-12-25T05:47:43.615Z,28.67
2022-12-25T05:50:47.695Z,27.13
2022-12-25T05:53:52.116Z,29.98
2022-12-25T05:56:56.957Z,28.20
2022-12-25T06:00:01.740Z,27.13
2022-12-25T06:03:06.751Z,28.80
2022-12-25T06:06:12.635Z,27.35
2022-12-25T06:09:17.098Z,25.92
2022-12-25T06:12:21.253Z,27.35
2022-12-25T06:15:25.383Z,26.52
2022-12-25T06:18:29.502Z,27.58
2022-12-25T06:21:33.986Z,24.92
2022-12-25T06:24:38.556Z,25.58
2022-12-25T06:27:42.705Z,25.42
2022-12-25T06:30:46.729Z,24.40
2022-12-25T06:33:51.225Z,24.05
2022-12-25T06:36:55.737Z,24.27
2022-12-25T06:40:00.346Z,22.77
2022-12-25T06:43:05.255Z,24.80
2022-12-25T06:46:12.319Z,24.02
2022-12-25T06:49:16.787Z,23.17
2022-12-25T06:52:21.261Z,23.92
2022-12-25T06:55:25.803Z,23.85
2022-12-25T06:58:30.440Z,22.70
2022-12-25T07:01:58.054Z,23.70
2022-12-25T07:05:04.903Z,23.92
2022-12-25T07:08:09.535Z,22.00
2022-12-25T07:11:14.444Z,23.08
2022-12-25T07:14:24.293Z,21.95
2022-12-25T07:17:28.841Z,22.95
2022-12-25T07:20:33.116Z,23.15
2022-12-25T07:23:37.367Z,20.77
2022-12-25T07:26:41.693Z,21.73
2022-12-25T07:29:46.209Z,21.50
2022-12-25T07:32:51.683Z,21.27
2022-12-25T07:35:56.310Z,19.40
2022-12-25T07:39:00.686Z,20.13
2022-12-25T07:42:05.438Z,19.90
2022-12-25T07:45:10.451Z,18.38
2022-12-25T07:48:16.916Z,18.85
2022-12-25T07:51:24.040Z,19.20
2022-12-25T07:54:28.749Z,20.40
2022-12-25T07:57:33.447Z,20.08
2022-12-25T08:00:37.720Z,18.75
2022-12-25T08:03:41.898Z,17.23
2022-12-25T08:06:47.047Z,18.33
2022-12-25T08:09:51.267Z,18.35
2022-12-25T08:12:58.398Z,17.45
2022-12-25T08:16:09.715Z,18.70
2022-12-25T08:19:14.895Z,17.35
2022-12-25T08:22:19.348Z,17.92
2022-12-25T08:25:23.759Z,17.52
2022-12-25T08:28:29.802Z,16.30
2022-12-25T08:31:37.246Z,15.93
2022-12-25T08:34:43.783Z,14.98
2022-12-25T08:37:48.161Z,15.98
2022-12-25T08:40:52.605Z,15.10
2022-12-25T08:43:57.406Z,15.00
2022-12-25T08:47:03.697Z,13.63
2022-12-25T08:50:09.006Z,14.52
2022-12-25T08:53:15.002Z,16.77
2022-12-25T08:56:20.178Z,17.05
2022-12-25T08:59:24.626Z,14.95
2022-12-25T09:02:29.498Z,13.70
2022-12-25T09:05:38.043Z,14.00
2022-12-25T09:08:48.780Z,13.50
2022-12-25T09:11:54.168Z,13.93
2022-12-25T09:14:58.694Z,14.32
2022-12-25T09:18:04.382Z,14.73
2022-12-25T09:21:12.969Z,13.73
2022-12-25T09:24:17.909Z,15.77
2022-12-25T09:27:22.235Z,15.02
2022-12-25T09:33:30.914Z,14.07
2022-12-25T09:36:35.473Z,13.68
2022-12-25T09:39:46.147Z,13.30
2022-12-25T09:42:54.696Z,14.25
2022-12-25T09:46:02.377Z,13.77
2022-12-25T09:49:21.474Z,13.52
2022-12-25T09:53:15.714Z,12.55
2022-12-25T09:56:27.164Z,13.63
2022-12-25T09:59:31.797Z,14.50
2022-12-25T10:03:08.578Z,11.10
2022-12-25T10:06:27.439Z,12.93
2022-12-25T10:10:11.008Z,12.80
2022-12-25T10:13:33.576Z,12.55
2022-12-25T10:17:13.114Z,12.13
2022-12-25T10:20:47.871Z,13.02
2022-12-25T10:24:38.622Z,12.50
2022-12-25T10:27:43.618Z,12.32
2022-12-25T10:30:53.272Z,14.35
2022-12-25T10:34:00.514Z,13.02
2022-12-25T10:37:12.292Z,12.50
2022-12-25T10:40:24.576Z,13.70
2022-12-25T10:43:59.323Z,15.50
2022-12-25T10:47:05.759Z,12.75
2022-12-25T10:50:24.577Z,12.30
2022-12-25T10:53:37.169Z,12.73
2022-12-25T10:56:51.799Z,14.43
2022-12-25T10:59:57.212Z,13.25
2022-12-25T11:03:02.442Z,12.63
2022-12-25T11:06:30.489Z,14.55
2022-12-25T11:09:35.032Z,12.98
2022-12-25T11:12:44.623Z,14.07
2022-12-25T11:15:50.497Z,15.45
2022-12-25T11:18:57.007Z,16.05
2022-12-25T11:22:05.100Z,14.98
2022-12-25T11:25:20.787Z,15.32
2022-12-25T11:28:28.169Z,15.90
2022-12-25T11:31:43.234Z,15.35
2022-12-25T11:34:49.241Z,16.80
2022-12-25T11:37:54.391Z,13.98
2022-12-25T11:41:03.179Z,15.48
2022-12-25T11:44:30.148Z,17.48
2022-12-25T11:48:30.562Z,15.68
2022-12-25T11:51:42.071Z,16.15
2022-12-25T11:55:42.667Z,15.48
2022-12-25T11:58:53.480Z,16.00
2022-12-25T12:02:32.743Z,15.98
2022-12-25T12:06:01.749Z,17.13
2022-12-25T12:09:43.883Z,16.08
2022-12-25T12:13:22.987Z,15.60
2022-12-25T12:16:28.248Z,17.40
2022-12-25T12:19:34.799Z,17.80
2022-12-25T12:22:39.565Z,18.08
2022-12-25T12:25:45.800Z,16.88
2022-12-25T12:28:54.282Z,16.48
2022-12-25T12:32:03.991Z,16.63
2022-12-25T12:35:26.502Z,15.95
2022-12-25T12:38:32.603Z,14.65
2022-12-25T12:41:48.260Z,15.40
2022-12-25T12:45:16.134Z,16.02
2022-12-25T12:48:27.487Z,16.02
2022-12-25T12:51:35.787Z,14.63
2022-12-25T12:55:03.728Z,14.93
2022-12-25T12:58:12.913Z,15.00
2022-12-25T13:01:26.387Z,14.20
2022-12-25T13:05:08.085Z,14.40
2022-12-25T13:08:40.035Z,14.02
2022-12-25T13:11:44.916Z,15.07
2022-12-25T13:14:50.461Z,13.23
2022-12-25T13:18:06.835Z,14.10
2022-12-25T13:21:22.061Z,13.00
2022-12-25T13:24:31.329Z,13.30
2022-12-25T13:27:36.117Z,12.40
2022-12-25T13:30:40.614Z,13.02
2022-12-25T13:34:36.526Z,12.95
2022-12-25T13:37:41.479Z,15.00
2022-12-25T13:41:13.852Z,13.45
2022-12-25T13:44:26.299Z,13.05
2022-12-25T13:47:33.395Z,15.32
2022-12-25T13:50:37.766Z,15.82
2022-12-25T13:53:43.030Z,13.80
2022-12-25T13:56:55.423Z,12.88
2022-12-25T14:00:00.376Z,33.75
2022-12-25T14:03:14.763Z,18.85
2022-12-25T14:06:27.331Z,15.38
2022-12-25T14:09:32.535Z,18.05
2022-12-25T14:12:37.180Z,15.18
2022-12-25T14:15:43.617Z,14.68
2022-12-25T14:19:02.704Z,17.30
2022-12-25T14:22:19.577Z,18.88
2022-12-25T14:25:44.501Z,17.55
2022-12-25T14:28:54.996Z,13.45
2022-12-25T14:32:00.582Z,13.63
2022-12-25T14:35:06.603Z,14.13
2022-12-25T14:38:29.291Z,13.50
2022-12-25T14:41:41.830Z,12.55
2022-12-25T14:45:03.435Z,13.13
2022-12-25T14:48:29.178Z,12.98
2022-12-25T14:51:38.925Z,12.18
2022-12-25T14:54:55.500Z,14.18
2022-12-25T14:58:04.885Z,14.95
2022-12-25T15:01:27.980Z,14.75
2022-12-25T15:04:32.156Z,16.88
2022-12-25T15:07:36.422Z,16.90
2022-12-25T15:14:06.318Z,19.02
2022-12-25T15:17:26.440Z,19.90
2022-12-25T15:20:33.364Z,18.35
2022-12-25T15:23:38.134Z,15.73
2022-12-25T15:33:17.956Z,18.73
2022-12-25T15:36:23.025Z,44.30
2022-12-25T15:39:27.302Z,33.08
2022-12-25T15:42:31.579Z,18.95
2022-12-25T15:45:36.146Z,20.08
2022-12-25T15:48:40.547Z,19.25
2022-12-25T15:54:49.586Z,18.38
2022-12-25T15:57:54.700Z,22.30
2022-12-25T16:00:59.273Z,25.42
2022-12-25T16:04:04.400Z,23.48
2022-12-25T16:07:22.001Z,23.45
2022-12-25T16:10:26.104Z,24.02
2022-12-25T16:13:30.459Z,23.17
2022-12-25T16:16:35.510Z,23.38
2022-12-25T16:19:40.264Z,23.20
2022-12-25T16:22:44.616Z,23.33
2022-12-25T16:25:48.949Z,25.10
2022-12-25T16:28:53.563Z,23.45
2022-12-25T16:31:57.687Z,22.52
2022-12-25T16:35:02.622Z,25.27
2022-12-25T16:38:07.601Z,24.45
2022-12-25T16:41:14.014Z,24.30
2022-12-25T16:44:18.471Z,25.80
2022-12-25T16:47:22.772Z,25.80
2022-12-25T16:50:27.157Z,23.40
2022-12-25T16:53:31.391Z,24.92
2022-12-25T16:56:36.730Z,26.77
2022-12-25T16:59:41.658Z,25.42
2022-12-25T17:02:46.494Z,25.58
2022-12-25T17:05:51.295Z,25.10
2022-12-25T17:09:02.385Z,26.40
2022-12-25T17:12:08.315Z,25.88
2022-12-25T17:15:13.072Z,23.55
2022-12-25T17:18:21.785Z,26.10
2022-12-25T17:21:29.375Z,25.35
2022-12-25T17:24:36.286Z,27.40
2022-12-25T17:27:40.773Z,27.63
2022-12-25T17:30:45.009Z,25.92
2022-12-25T17:36:54.355Z,25.63
2022-12-25T17:39:58.869Z,25.90
2022-12-25T17:43:03.209Z,26.60
2022-12-25T17:46:11.821Z,24.35
2022-12-25T17:49:20.867Z,24.77
2022-12-25T17:52:25.569Z,24.73
2022-12-25T17:55:34.134Z,26.33
2022-12-25T17:58:39.048Z,27.33
2022-12-25T18:01:43.671Z,27.58
2022-12-25T18:04:48.315Z,41.85
2022-12-25T18:07:52.561Z,30.42
2022-12-25T18:11:01.856Z,26.75
2022-12-25T18:14:09.554Z,24.15
2022-12-25T18:17:13.867Z,24.17
2022-12-25T18:20:18.003Z,23.80
2022-12-25T18:23:22.338Z,21.75
2022-12-25T18:26:28.753Z,23.67
2022-12-25T18:29:33.447Z,22.90
2022-12-25T18:32:37.620Z,23.98
2022-12-25T18:35:43.579Z,24.60
2022-12-25T18:38:50.346Z,23.73
2022-12-25T18:42:24.019Z,22.92
2022-12-25T18:45:28.506Z,23.60
2022-12-25T18:48:35.410Z,22.83
2022-12-25T18:51:39.839Z,22.42
2022-12-25T18:54:44.754Z,22.55
2022-12-25T18:57:49.992Z,21.80
2022-12-25T19:00:54.757Z,22.70
2022-12-25T19:04:05.203Z,24.13
2022-12-25T19:07:11.248Z,23.40
2022-12-25T19:10:15.946Z,23.00
2022-12-25T19:13:20.159Z,23.95
2022-12-25T19:16:24.435Z,22.30
2022-12-25T19:19:28.567Z,24.63
2022-12-25T19:22:33.122Z,22.00
2022-12-25T19:25:39.842Z,23.77
2022-12-25T19:28:44.294Z,24.08
2022-12-25T19:31:50.253Z,22.45
2022-12-25T19:34:58.495Z,23.00
2022-12-25T19:38:06.338Z,21.10
2022-12-25T19:41:19.243Z,23.67
2022-12-25T19:44:24.029Z,21.25
2022-12-25T19:47:30.593Z,23.08
2022-12-25T19:50:35.093Z,21.02
2022-12-25T19:53:39.719Z,19.65
2022-12-25T19:56:44.111Z,20.15
2022-12-25T19:59:50.953Z,19.83
2022-12-25T20:02:55.304Z,20.20
2022-12-25T20:06:01.652Z,19.98
2022-12-25T20:09:16.990Z,19.40
2022-12-25T20:12:23.301Z,17.98
2022-12-25T20:15:27.434Z,20.02
2022-12-25T20:18:31.960Z,20.25
2022-12-25T20:21:36.147Z,19.15
2022-12-25T20:24:40.388Z,19.33
2022-12-25T20:27:44.715Z,21.17
2022-12-25T20:30:48.951Z,18.27
2022-12-25T20:33:58.388Z,18.80
2022-12-25T20:37:03.096Z,17.95
2022-12-25T20:40:08.991Z,18.65
2022-12-25T20:43:13.487Z,18.85
2022-12-25T20:46:18.170Z,19.48
2022-12-25T20:49:22.829Z,19.00
2022-12-25T20:52:27.007Z,16.63
2022-12-25T20:55:31.339Z,19.35
2022-12-25T20:58:36.287Z,21.30
2022-12-25T21:01:40.869Z,20.55
2022-12-25T21:04:50.558Z,19.55
2022-12-25T21:07:58.521Z,19.25
2022-12-25T21:11:05.531Z,20.23
2022-12-25T21:14:10.101Z,21.48
2022-12-25T21:17:14.343Z,21.27
2022-12-25T21:20:19.079Z,19.30
2022-12-25T21:23:26.622Z,20.02
2022-12-25T21:26:31.841Z,19.77
2022-12-25T21:29:36.144Z,19.35
2022-12-25T21:32:58.982Z,19.85
2022-12-25T21:36:11.440Z,22.58
2022-12-25T21:39:15.982Z,21.15
2022-12-25T21:42:20.651Z,22.85
2022-12-25T21:45:24.902Z,21.95
2022-12-25T21:48:30.089Z,24.25
2022-12-25T21:51:53.509Z,22.92
2022-12-25T21:54:57.827Z,22.92
2022-12-25T21:58:02.865Z,22.58
2022-12-25T22:01:07.447Z,22.85
2022-12-25T22:04:13.874Z,21.63
2022-12-25T22:07:18.340Z,22.13
2022-12-25T22:10:23.045Z,21.17
2022-12-25T22:13:46.081Z,19.90
2022-12-25T22:17:08.831Z,20.55
2022-12-25T22:20:30.581Z,23.52
2022-12-25T22:23:34.867Z,22.17
2022-12-25T22:26:39.020Z,22.50
2022-12-25T22:29:43.890Z,24.83
2022-12-25T22:32:49.550Z,24.63
2022-12-25T22:36:06.063Z,22.60
2022-12-25T22:39:10.749Z,21.98
2022-12-25T22:42:16.290Z,25.20
2022-12-25T22:45:20.862Z,20.83
2022-12-25T22:48:25.270Z,20.30
2022-12-25T22:51:29.532Z,20.38
2022-12-25T22:54:33.938Z,22.33
2022-12-25T22:57:38.240Z,22.20
2022-12-25T23:00:46.461Z,21.50
2022-12-25T23:03:55.177Z,22.17
2022-12-25T23:06:59.985Z,21.45
2022-12-25T23:10:06.700Z,20.95
2022-12-25T23:13:29.289Z,22.33
2022-12-25T23:16:34.011Z,26.58
2022-12-25T23:19:56.689Z,26.92
2022-12-25T23:23:27.559Z,25.67
2022-12-25T23:26:32.068Z,24.45
2022-12-25T23:29:37.000Z,25.38
2022-12-25T23:32:42.719Z,23.83
2022-12-25T23:35:48.163Z,23.08
2022-12-25T23:38:52.692Z,26.30
2022-12-25T23:45:01.604Z,25.60
2022-12-25T23:48:06.201Z,25.63
2022-12-25T23:51:10.848Z,26.90
2022-12-25T23:54:23.551Z,24.63
2022-12-25T23:57:28.330Z,23.20
